createdAt,value
2017-09-29T00:01:57.523Z,59.28
2017-09-29T00:06:02.059Z,59.29
2017-09-29T00:10:06.271Z,59.29
2017-09-29T00:14:10.830Z,59.30
2017-09-29T00:18:14.299Z,59.30
2017-09-29T00:22:18.137Z,59.32
2017-09-29T00:26:22.358Z,59.32
2017-09-29T00:30:26.868Z,59.33
2017-09-29T00:34:30.439Z,59.34
2017-09-29T00:38:34.214Z,59.34
2017-09-29T00:42:38.447Z,59.36
2017-09-29T00:46:42.264Z,59.37
2017-09-29T00:50:45.728Z,59.37
2017-09-29T00:54:49.492Z,59.37
2017-09-29T00:58:52.947Z,59.39
2017-09-29T01:02:56.707Z,59.39
2017-09-29T01:07:00.167Z,59.40
2017-09-29T01:11:04.018Z,59.41
2017-09-29T01:15:08.247Z,59.40
2017-09-29T01:19:12.785Z,59.41
2017-09-29T01:23:17.068Z,59.42
2017-09-29T01:27:20.932Z,59.43
2017-09-29T01:31:24.395Z,59.44
2017-09-29T01:35:28.240Z,59.45
2017-09-29T01:39:32.450Z,59.47
2017-09-29T01:43:36.202Z,59.46
2017-09-29T01:47:39.666Z,59.48
2017-09-29T01:51:43.420Z,59.48
2017-09-29T01:55:46.870Z,59.48
2017-09-29T01:59:50.635Z,59.49
2017-09-29T02:03:54.096Z,59.50
2017-09-29T02:07:57.847Z,59.49
2017-09-29T02:12:02.077Z,59.50
2017-09-29T02:16:06.627Z,59.50
2017-09-29T02:20:10.093Z,59.52
2017-09-29T02:24:13.932Z,59.51
2017-09-29T02:28:18.166Z,59.53
2017-09-29T02:32:21.980Z,59.54
2017-09-29T02:36:25.444Z,59.55
2017-09-29T02:40:29.199Z,59.56
2017-09-29T02:44:32.653Z,59.55
2017-09-29T02:48:36.728Z,59.56
2017-09-29T02:52:40.178Z,59.57
2017-09-29T02:56:51.099Z,59.56
2017-09-29T03:01:01.308Z,59.58
2017-09-29T03:05:11.409Z,59.58
2017-09-29T03:09:14.851Z,59.58
2017-09-29T03:13:18.664Z,59.59
2017-09-29T03:17:22.127Z,59.59
2017-09-29T03:21:25.893Z,59.60
2017-09-29T03:25:29.360Z,59.60
2017-09-29T03:29:33.208Z,59.62
2017-09-29T03:33:36.668Z,59.62
2017-09-29T03:37:40.433Z,59.62
2017-09-29T03:41:43.900Z,59.63
2017-09-29T03:45:47.738Z,59.63
2017-09-29T03:49:55.876Z,59.63
2017-09-29T03:54:06.914Z,59.64
2017-09-29T03:58:17.628Z,59.64
2017-09-29T04:02:22.158Z,59.64
2017-09-29T04:06:25.633Z,59.66
2017-09-29T04:10:29.475Z,59.65
2017-09-29T04:14:33.706Z,59.67
2017-09-29T04:18:38.235Z,59.67
2017-09-29T04:22:42.459Z,59.67
2017-09-29T04:26:46.994Z,59.69
2017-09-29T04:30:51.221Z,59.67
2017-09-29T04:34:55.034Z,59.70
2017-09-29T04:38:59.256Z,59.72
2017-09-29T04:43:03.899Z,59.71
2017-09-29T04:47:08.126Z,59.70
2017-09-29T04:51:11.938Z,59.72
2017-09-29T04:55:16.168Z,59.71
2017-09-29T04:59:19.955Z,59.71
2017-09-29T05:03:23.411Z,59.69
2017-09-29T05:07:27.198Z,59.71
2017-09-29T05:11:31.426Z,59.71
2017-09-29T05:15:35.967Z,59.68
2017-09-29T05:19:39.435Z,59.69
2017-09-29T05:23:43.282Z,59.68
2017-09-29T05:27:46.749Z,59.68
2017-09-29T05:31:50.504Z,59.68
2017-09-29T05:35:53.972Z,59.67
2017-09-29T05:39:57.822Z,59.67
2017-09-29T05:44:02.056Z,59.67
2017-09-29T05:48:05.802Z,59.66
2017-09-29T05:52:09.277Z,59.66
2017-09-29T05:56:13.093Z,59.64
2017-09-29T06:00:16.559Z,59.63
2017-09-29T06:04:20.414Z,59.67
2017-09-29T06:08:23.879Z,59.68
2017-09-29T06:12:27.727Z,59.62
2017-09-29T06:16:31.947Z,59.58
2017-09-29T06:20:36.489Z,59.58
2017-09-29T06:24:40.706Z,59.57
2017-09-29T06:28:45.247Z,59.56
2017-09-29T06:32:49.486Z,59.57
2017-09-29T06:36:53.238Z,59.54
2017-09-29T06:40:56.707Z,59.52
2017-09-29T06:45:00.506Z,59.57
2017-09-29T06:49:04.722Z,59.58
2017-09-29T06:53:09.358Z,59.58
2017-09-29T06:57:13.597Z,59.56
2017-09-29T07:01:17.403Z,59.55
2017-09-29T07:05:21.667Z,59.55
2017-09-29T07:09:25.431Z,59.57
2017-09-29T07:13:28.894Z,59.55
2017-09-29T07:17:32.768Z,59.55
2017-09-29T07:21:36.995Z,59.57
2017-09-29T07:25:46.176Z,59.58
2017-09-29T07:29:52.395Z,59.61
2017-09-29T07:33:56.927Z,59.64
2017-09-29T07:38:01.154Z,59.66
2017-09-29T07:42:05.687Z,59.67
2017-09-29T07:46:09.924Z,59.72
2017-09-29T07:50:14.447Z,59.69
2017-09-29T07:54:18.692Z,59.72
2017-09-29T07:58:22.472Z,59.71
2017-09-29T08:02:25.938Z,59.68
2017-09-29T08:06:29.819Z,59.70
2017-09-29T08:10:34.046Z,59.70
2017-09-29T08:14:38.576Z,59.76
2017-09-29T08:18:42.787Z,59.81
2017-09-29T08:22:47.327Z,59.86
2017-09-29T08:26:51.628Z,59.89
2017-09-29T08:30:55.472Z,59.89
2017-09-29T08:34:59.701Z,59.93
2017-09-29T08:39:04.222Z,59.92
2017-09-29T08:43:08.453Z,59.94
2017-09-29T08:47:12.994Z,59.83
2017-09-29T08:51:16.456Z,59.96
2017-09-29T08:55:20.311Z,60.06
2017-09-29T08:59:24.543Z,60.02
2017-09-29T09:03:28.356Z,60.02
2017-09-29T09:07:31.817Z,60.01
2017-09-29T09:11:35.579Z,59.95
2017-09-29T09:15:39.043Z,60.01
2017-09-29T09:19:42.896Z,59.92
2017-09-29T09:23:47.128Z,59.94
2017-09-29T09:27:50.975Z,59.90
2017-09-29T09:31:54.447Z,59.89
2017-09-29T09:35:59.089Z,59.90
2017-09-29T09:40:02.561Z,59.94
2017-09-29T09:44:06.317Z,59.85
2017-09-29T09:48:09.776Z,59.84
2017-09-29T09:52:13.636Z,59.84
2017-09-29T09:56:17.095Z,59.84
2017-09-29T10:00:20.947Z,59.84
2017-09-29T10:04:25.167Z,59.90
2017-09-29T10:08:29.717Z,59.85
2017-09-29T10:12:33.228Z,59.85
2017-09-29T10:16:37.028Z,59.84
2017-09-29T10:20:41.255Z,59.82
2017-09-29T10:24:45.788Z,59.84
2017-09-29T10:28:50.023Z,59.81
2017-09-29T10:32:53.824Z,59.81
2017-09-29T10:36:58.023Z,59.79
2017-09-29T10:41:01.658Z,59.80
2017-09-29T10:45:05.891Z,59.78
2017-09-29T10:49:09.362Z,59.78
2017-09-29T10:53:12.819Z,59.75
2017-09-29T10:57:16.623Z,59.73
2017-09-29T11:01:20.074Z,59.72
2017-09-29T11:05:23.817Z,59.69
2017-09-29T11:09:27.270Z,59.68
2017-09-29T11:13:30.864Z,59.68
2017-09-29T11:17:34.322Z,59.68
2017-09-29T11:21:37.824Z,59.70
2017-09-29T11:25:41.283Z,59.68
2017-09-29T11:29:44.760Z,59.66
2017-09-29T11:33:48.219Z,59.67
2017-09-29T11:37:52.007Z,59.67
2017-09-29T11:41:55.471Z,59.67
2017-09-29T11:45:58.978Z,59.65
2017-09-29T11:50:02.431Z,59.66
2017-09-29T11:54:06.688Z,59.63
2017-09-29T11:58:10.142Z,59.63
2017-09-29T12:02:13.632Z,59.61
2017-09-29T12:06:17.122Z,59.58
2017-09-29T12:10:20.599Z,59.66
2017-09-29T12:14:24.082Z,59.59
2017-09-29T12:18:28.630Z,59.59
2017-09-29T12:22:32.197Z,59.64
2017-09-29T12:26:35.684Z,59.63
2017-09-29T12:30:39.190Z,59.66
2017-09-29T12:34:42.675Z,59.70
2017-09-29T12:38:46.131Z,59.61
2017-09-29T12:42:49.631Z,59.58
2017-09-29T12:46:53.105Z,59.54
2017-09-29T12:50:56.891Z,59.49
2017-09-29T12:55:01.110Z,59.50
2017-09-29T12:59:05.354Z,59.43
2017-09-29T13:03:08.809Z,59.39
2017-09-29T13:07:12.573Z,59.36
2017-09-29T13:11:16.014Z,59.35
2017-09-29T13:15:19.538Z,59.34
2017-09-29T13:19:22.995Z,59.31
2017-09-29T13:23:26.803Z,59.28
2017-09-29T13:27:31.019Z,59.27
2017-09-29T13:31:35.659Z,59.21
2017-09-29T13:35:39.893Z,59.41
2017-09-29T13:39:43.691Z,59.33
2017-09-29T13:43:47.909Z,59.21
2017-09-29T13:47:52.175Z,59.28
2017-09-29T13:51:55.630Z,59.15
2017-09-29T13:55:59.263Z,59.16
2017-09-29T14:00:03.508Z,59.14
2017-09-29T14:04:06.996Z,59.14
2017-09-29T14:08:11.205Z,59.10
2017-09-29T14:12:16.267Z,59.24
2017-09-29T14:16:20.501Z,59.14
2017-09-29T14:20:23.977Z,59.18
2017-09-29T14:24:27.444Z,59.19
2017-09-29T14:28:30.923Z,59.14
2017-09-29T14:32:34.447Z,59.25
2017-09-29T14:36:37.937Z,59.11
2017-09-29T14:40:42.179Z,59.07
2017-09-29T14:44:45.670Z,59.08
2017-09-29T14:48:49.892Z,59.09
2017-09-29T14:52:54.432Z,59.13
2017-09-29T14:56:57.878Z,59.16
2017-09-29T15:01:01.331Z,59.22
2017-09-29T15:05:05.676Z,59.32
2017-09-29T15:09:09.166Z,59.30
2017-09-29T15:13:13.499Z,59.29
2017-09-29T15:17:17.731Z,59.30
2017-09-29T15:21:21.189Z,59.30
2017-09-29T15:25:24.670Z,59.30
2017-09-29T15:29:28.191Z,59.29
2017-09-29T15:33:31.665Z,59.28
2017-09-29T15:37:35.130Z,59.28
2017-09-29T15:41:38.611Z,59.28
2017-09-29T15:45:42.058Z,59.28
2017-09-29T15:49:45.807Z,59.29
2017-09-29T15:53:49.259Z,59.26
2017-09-29T15:57:53.110Z,59.25
2017-09-29T16:01:56.571Z,59.26
2017-09-29T16:06:00.071Z,59.24
2017-09-29T16:10:03.531Z,59.25
2017-09-29T16:14:07.776Z,59.26
2017-09-29T16:18:11.231Z,59.25
2017-09-29T16:22:14.729Z,59.25
2017-09-29T16:26:18.190Z,59.31
2017-09-29T16:30:21.662Z,59.23
2017-09-29T16:34:25.127Z,59.24
2017-09-29T16:38:28.617Z,59.22
2017-09-29T16:42:32.070Z,59.24
2017-09-29T16:46:35.550Z,59.22
2017-09-29T16:50:39.003Z,59.20
2017-09-29T16:54:42.478Z,59.23
2017-09-29T16:58:45.919Z,59.21
2017-09-29T17:02:50.906Z,59.22
2017-09-29T17:06:54.363Z,59.21
2017-09-29T17:10:57.838Z,59.19
2017-09-29T17:15:01.291Z,59.20
2017-09-29T17:19:05.569Z,59.20
2017-09-29T17:23:09.072Z,59.20
2017-09-29T17:27:12.550Z,59.15
2017-09-29T17:31:16.006Z,59.20
2017-09-29T17:35:19.490Z,59.20
2017-09-29T17:39:23.104Z,59.21
2017-09-29T17:43:26.583Z,59.22
2017-09-29T17:47:31.685Z,59.22
2017-09-29T17:51:35.431Z,59.22
2017-09-29T17:55:39.652Z,59.24
2017-09-29T17:59:43.891Z,59.23
2017-09-29T18:03:48.107Z,59.21
2017-09-29T18:07:52.351Z,59.15
2017-09-29T18:11:55.798Z,59.11
2017-09-29T18:15:59.284Z,59.07
2017-09-29T18:20:02.865Z,59.11
2017-09-29T18:24:07.125Z,59.26
2017-09-29T18:28:10.582Z,59.22
2017-09-29T18:32:15.124Z,59.25
2017-09-29T18:36:19.334Z,59.30
2017-09-29T18:40:24.141Z,59.31
2017-09-29T18:44:27.610Z,59.35
2017-09-29T18:48:32.055Z,59.34
2017-09-29T18:52:35.516Z,59.36
2017-09-29T18:56:39.003Z,59.38
2017-09-29T19:00:42.466Z,59.40
2017-09-29T19:04:45.951Z,59.42
2017-09-29T19:08:50.172Z,59.42
2017-09-29T19:12:54.426Z,59.43
2017-09-29T19:16:57.898Z,59.44
2017-09-29T19:21:01.383Z,59.44
2017-09-29T19:25:04.842Z,59.44
2017-09-29T19:29:08.649Z,59.45
2017-09-29T19:33:12.110Z,59.46
2017-09-29T19:37:15.606Z,59.46
2017-09-29T19:41:19.106Z,59.47
2017-09-29T19:45:22.579Z,59.47
2017-09-29T19:49:26.043Z,59.47
2017-09-29T19:53:29.525Z,59.48
2017-09-29T19:57:32.969Z,59.49
2017-09-29T20:01:36.465Z,59.50
2017-09-29T20:05:39.921Z,59.50
2017-09-29T20:09:43.407Z,59.51
2017-09-29T20:13:47.629Z,59.51
2017-09-29T20:17:51.894Z,59.51
2017-09-29T20:21:55.357Z,59.51
2017-09-29T20:25:59.611Z,59.52
2017-09-29T20:30:03.101Z,59.53
2017-09-29T20:34:07.352Z,59.53
2017-09-29T20:38:10.863Z,59.52
2017-09-29T20:42:14.354Z,59.53
2017-09-29T20:46:18.579Z,59.54
2017-09-29T20:50:22.823Z,59.55
2017-09-29T20:54:26.275Z,59.54
2017-09-29T20:58:29.759Z,59.55
2017-09-29T21:02:33.207Z,59.55
2017-09-29T21:06:36.697Z,59.56
2017-09-29T21:10:40.147Z,59.56
2017-09-29T21:14:43.943Z,59.56
2017-09-29T21:18:48.159Z,59.52
2017-09-29T21:22:51.648Z,59.52
2017-09-29T21:26:55.099Z,59.53
2017-09-29T21:30:58.587Z,59.55
2017-09-29T21:35:02.811Z,59.57
2017-09-29T21:39:07.059Z,59.58
2017-09-29T21:43:10.519Z,59.59
2017-09-29T21:47:14.347Z,59.59
2017-09-29T21:51:17.799Z,59.59
2017-09-29T21:55:21.294Z,59.59
2017-09-29T21:59:24.758Z,59.59
2017-09-29T22:03:28.647Z,59.59
2017-09-29T22:07:32.107Z,59.61
2017-09-29T22:11:36.354Z,59.60
2017-09-29T22:15:39.808Z,59.59
2017-09-29T22:19:43.273Z,59.60
2017-09-29T22:23:46.717Z,59.60
2017-09-29T22:27:50.191Z,59.61
2017-09-29T22:31:53.647Z,59.62
2017-09-29T22:35:57.123Z,59.62
2017-09-29T22:40:00.585Z,59.63
2017-09-29T22:44:04.846Z,59.63
2017-09-29T22:48:08.291Z,59.63
2017-09-29T22:52:11.771Z,59.63
2017-09-29T22:56:15.223Z,59.64
2017-09-29T23:00:18.708Z,59.64
2017-09-29T23:04:22.166Z,59.65
2017-09-29T23:08:25.988Z,59.67
2017-09-29T23:12:29.507Z,59.67
2017-09-29T23:16:32.987Z,59.67
2017-09-29T23:20:36.415Z,59.68
2017-09-29T23:24:39.896Z,59.69
2017-09-29T23:28:44.111Z,59.68
2017-09-29T23:32:48.357Z,59.70
2017-09-29T23:36:51.810Z,59.70
2017-09-29T23:40:55.294Z,59.70
2017-09-29T23:44:58.742Z,59.71
2017-09-29T23:49:02.228Z,59.71
2017-09-29T23:53:05.682Z,59.72
2017-09-29T23:57:10.212Z,59.73
